sensor_id;sensor_type;location;lat;lon;timestamp;P1;durP1;ratioP1;P2;durP2;ratioP2
82473;SDS011;72350;53.232;6.556;2023-08-31T00:01:39;3.00;;;0.93;;
82473;SDS011;72350;53.232;6.556;2023-08-31T00:04:07;4.28;;;1.17;;
82473;SDS011;72350;53.232;6.556;2023-08-31T00:06:41;2.97;;;1.20;;
82473;SDS011;72350;53.232;6.556;2023-08-31T00:09:11;2.72;;;1.90;;
82473;SDS011;72350;53.232;6.556;2023-08-31T00:11:40;3.75;;;1.08;;
82473;SDS011;72350;53.232;6.556;2023-08-31T00:14:08;4.10;;;1.33;;
82473;SDS011;72350;53.232;6.556;2023-08-31T00:16:36;3.97;;;1.70;;
82473;SDS011;72350;53.232;6.556;2023-08-31T00:19:04;5.13;;;2.85;;
82473;SDS011;72350;53.232;6.556;2023-08-31T00:21:32;1.90;;;0.98;;
82473;SDS011;72350;53.232;6.556;2023-08-31T00:24:00;2.22;;;0.90;;
82473;SDS011;72350;53.232;6.556;2023-08-31T00:26:28;1.52;;;1.23;;
82473;SDS011;72350;53.232;6.556;2023-08-31T00:28:58;3.10;;;1.25;;
82473;SDS011;72350;53.232;6.556;2023-08-31T00:31:26;2.63;;;1.10;;
82473;SDS011;72350;53.232;6.556;2023-08-31T00:33:54;3.08;;;1.88;;
82473;SDS011;72350;53.232;6.556;2023-08-31T00:36:22;9.70;;;4.13;;
82473;SDS011;72350;53.232;6.556;2023-08-31T00:38:50;3.80;;;1.50;;
82473;SDS011;72350;53.232;6.556;2023-08-31T00:41:18;4.57;;;2.13;;
82473;SDS011;72350;53.232;6.556;2023-08-31T00:43:46;1.83;;;1.08;;
82473;SDS011;72350;53.232;6.556;2023-08-31T00:46:15;4.15;;;1.58;;
82473;SDS011;72350;53.232;6.556;2023-08-31T00:48:45;3.58;;;1.17;;
82473;SDS011;72350;53.232;6.556;2023-08-31T00:51:13;3.22;;;2.15;;
82473;SDS011;72350;53.232;6.556;2023-08-31T00:53:40;3.60;;;1.77;;
82473;SDS011;72350;53.232;6.556;2023-08-31T00:56:08;4.30;;;1.27;;
82473;SDS011;72350;53.232;6.556;2023-08-31T00:58:36;4.90;;;2.05;;
82473;SDS011;72350;53.232;6.556;2023-08-31T01:01:09;2.60;;;2.20;;
82473;SDS011;72350;53.232;6.556;2023-08-31T01:03:46;3.10;;;2.10;;
82473;SDS011;72350;53.232;6.556;2023-08-31T01:06:23;4.75;;;1.70;;
82473;SDS011;72350;53.232;6.556;2023-08-31T01:09:05;3.63;;;2.17;;
82473;SDS011;72350;53.232;6.556;2023-08-31T01:11:45;3.63;;;1.90;;
82473;SDS011;72350;53.232;6.556;2023-08-31T01:14:23;3.90;;;2.35;;
82473;SDS011;72350;53.232;6.556;2023-08-31T01:16:53;3.03;;;1.92;;
82473;SDS011;72350;53.232;6.556;2023-08-31T01:19:28;3.47;;;2.17;;
82473;SDS011;72350;53.232;6.556;2023-08-31T01:22:07;2.50;;;1.60;;
82473;SDS011;72350;53.232;6.556;2023-08-31T01:24:41;3.40;;;2.15;;
82473;SDS011;72350;53.232;6.556;2023-08-31T01:27:09;4.13;;;2.25;;
82473;SDS011;72350;53.232;6.556;2023-08-31T01:29:38;4.10;;;1.73;;
82473;SDS011;72350;53.232;6.556;2023-08-31T01:32:06;2.55;;;1.70;;
82473;SDS011;72350;53.232;6.556;2023-08-31T01:34:36;3.22;;;2.20;;
82473;SDS011;72350;53.232;6.556;2023-08-31T01:37:08;3.85;;;1.77;;
82473;SDS011;72350;53.232;6.556;2023-08-31T01:39:49;2.45;;;1.45;;
82473;SDS011;72350;53.232;6.556;2023-08-31T01:42:20;2.65;;;1.40;;
82473;SDS011;72350;53.232;6.556;2023-08-31T01:44:52;2.33;;;1.30;;
82473;SDS011;72350;53.232;6.556;2023-08-31T01:47:21;2.75;;;1.48;;
82473;SDS011;72350;53.232;6.556;2023-08-31T01:49:50;1.63;;;1.42;;
82473;SDS011;72350;53.232;6.556;2023-08-31T01:52:18;2.53;;;1.10;;
82473;SDS011;72350;53.232;6.556;2023-08-31T01:54:47;2.80;;;1.50;;
82473;SDS011;72350;53.232;6.556;2023-08-31T01:57:15;3.25;;;1.25;;
82473;SDS011;72350;53.232;6.556;2023-08-31T02:00:01;5.15;;;1.60;;
82473;SDS011;72350;53.232;6.556;2023-08-31T02:02:39;1.38;;;1.02;;
82473;SDS011;72350;53.232;6.556;2023-08-31T02:05:08;2.42;;;1.30;;
82473;SDS011;72350;53.232;6.556;2023-08-31T02:07:36;1.67;;;1.10;;
82473;SDS011;72350;53.232;6.556;2023-08-31T02:10:06;2.38;;;1.45;;
82473;SDS011;72350;53.232;6.556;2023-08-31T02:12:34;4.18;;;1.38;;
82473;SDS011;72350;53.232;6.556;2023-08-31T02:15:04;2.70;;;1.17;;
82473;SDS011;72350;53.232;6.556;2023-08-31T02:17:33;2.25;;;1.10;;
82473;SDS011;72350;53.232;6.556;2023-08-31T02:20:02;1.10;;;1.00;;
82473;SDS011;72350;53.232;6.556;2023-08-31T02:22:33;3.35;;;1.23;;
82473;SDS011;72350;53.232;6.556;2023-08-31T02:25:01;1.95;;;0.98;;
82473;SDS011;72350;53.232;6.556;2023-08-31T02:27:31;4.93;;;1.00;;
82473;SDS011;72350;53.232;6.556;2023-08-31T02:29:59;2.75;;;1.17;;
82473;SDS011;72350;53.232;6.556;2023-08-31T02:32:28;3.78;;;1.17;;
82473;SDS011;72350;53.232;6.556;2023-08-31T02:34:56;1.30;;;1.00;;
82473;SDS011;72350;53.232;6.556;2023-08-31T02:37:23;3.83;;;1.10;;
82473;SDS011;72350;53.232;6.556;2023-08-31T02:39:51;1.20;;;0.77;;
82473;SDS011;72350;53.232;6.556;2023-08-31T02:42:19;1.58;;;1.13;;
82473;SDS011;72350;53.232;6.556;2023-08-31T02:44:48;3.38;;;1.45;;
82473;SDS011;72350;53.232;6.556;2023-08-31T02:47:19;3.70;;;0.93;;
82473;SDS011;72350;53.232;6.556;2023-08-31T02:49:47;1.67;;;1.00;;
82473;SDS011;72350;53.232;6.556;2023-08-31T02:52:16;1.58;;;1.00;;
82473;SDS011;72350;53.232;6.556;2023-08-31T02:54:44;4.18;;;1.08;;
82473;SDS011;72350;53.232;6.556;2023-08-31T02:57:12;3.45;;;1.20;;
82473;SDS011;72350;53.232;6.556;2023-08-31T02:59:41;3.30;;;1.23;;
82473;SDS011;72350;53.232;6.556;2023-08-31T03:02:10;3.42;;;0.90;;
82473;SDS011;72350;53.232;6.556;2023-08-31T03:04:38;0.80;;;0.60;;
82473;SDS011;72350;53.232;6.556;2023-08-31T03:07:07;3.72;;;0.80;;
82473;SDS011;72350;53.232;6.556;2023-08-31T03:09:34;2.33;;;0.80;;
82473;SDS011;72350;53.232;6.556;2023-08-31T03:12:05;2.58;;;1.30;;
82473;SDS011;72350;53.232;6.556;2023-08-31T03:14:33;4.53;;;1.30;;
82473;SDS011;72350;53.232;6.556;2023-08-31T03:17:01;6.05;;;0.90;;
82473;SDS011;72350;53.232;6.556;2023-08-31T03:19:31;1.27;;;1.05;;
82473;SDS011;72350;53.232;6.556;2023-08-31T03:21:58;1.75;;;0.70;;
82473;SDS011;72350;53.232;6.556;2023-08-31T03:24:26;0.93;;;0.80;;
82473;SDS011;72350;53.232;6.556;2023-08-31T03:26:55;2.97;;;1.35;;
82473;SDS011;72350;53.232;6.556;2023-08-31T03:29:23;4.07;;;0.90;;
82473;SDS011;72350;53.232;6.556;2023-08-31T03:31:51;1.98;;;0.60;;
82473;SDS011;72350;53.232;6.556;2023-08-31T03:34:19;2.28;;;0.70;;
82473;SDS011;72350;53.232;6.556;2023-08-31T03:36:48;1.63;;;0.68;;
82473;SDS011;72350;53.232;6.556;2023-08-31T03:39:16;1.58;;;0.70;;
82473;SDS011;72350;53.232;6.556;2023-08-31T03:41:44;3.17;;;0.73;;
82473;SDS011;72350;53.232;6.556;2023-08-31T03:44:12;1.25;;;0.88;;
82473;SDS011;72350;53.232;6.556;2023-08-31T03:46:40;1.75;;;0.70;;
82473;SDS011;72350;53.232;6.556;2023-08-31T03:49:08;1.10;;;0.70;;
82473;SDS011;72350;53.232;6.556;2023-08-31T03:51:36;1.58;;;0.80;;
82473;SDS011;72350;53.232;6.556;2023-08-31T03:54:06;2.80;;;1.00;;
82473;SDS011;72350;53.232;6.556;2023-08-31T03:56:34;0.70;;;0.45;;
82473;SDS011;72350;53.232;6.556;2023-08-31T03:59:02;4.63;;;0.80;;
82473;SDS011;72350;53.232;6.556;2023-08-31T04:01:31;2.97;;;0.57;;
82473;SDS011;72350;53.232;6.556;2023-08-31T04:03:59;2.47;;;0.80;;
82473;SDS011;72350;53.232;6.556;2023-08-31T04:06:27;3.75;;;0.70;;
82473;SDS011;72350;53.232;6.556;2023-08-31T04:08:55;6.30;;;0.73;;
82473;SDS011;72350;53.232;6.556;2023-08-31T04:11:24;3.83;;;0.80;;
82473;SDS011;72350;53.232;6.556;2023-08-31T04:13:52;1.65;;;0.80;;
82473;SDS011;72350;53.232;6.556;2023-08-31T04:16:20;1.55;;;0.70;;
82473;SDS011;72350;53.232;6.556;2023-08-31T04:18:48;1.88;;;0.70;;
82473;SDS011;72350;53.232;6.556;2023-08-31T04:21:17;1.85;;;0.63;;
82473;SDS011;72350;53.232;6.556;2023-08-31T04:23:45;3.40;;;0.95;;
82473;SDS011;72350;53.232;6.556;2023-08-31T04:26:13;1.30;;;1.00;;
82473;SDS011;72350;53.232;6.556;2023-08-31T04:28:42;3.70;;;1.48;;
82473;SDS011;72350;53.232;6.556;2023-08-31T04:31:11;3.17;;;1.15;;
82473;SDS011;72350;53.232;6.556;2023-08-31T04:33:38;6.70;;;1.02;;
82473;SDS011;72350;53.232;6.556;2023-08-31T04:36:07;1.80;;;0.82;;
82473;SDS011;72350;53.232;6.556;2023-08-31T04:38:35;3.22;;;0.70;;
82473;SDS011;72350;53.232;6.556;2023-08-31T04:41:03;4.97;;;1.17;;
82473;SDS011;72350;53.232;6.556;2023-08-31T04:43:31;2.05;;;0.80;;
82473;SDS011;72350;53.232;6.556;2023-08-31T04:46:00;4.20;;;1.38;;
82473;SDS011;72350;53.232;6.556;2023-08-31T04:48:30;4.25;;;1.38;;
82473;SDS011;72350;53.232;6.556;2023-08-31T04:50:58;4.20;;;1.30;;
82473;SDS011;72350;53.232;6.556;2023-08-31T04:53:26;2.85;;;1.10;;
82473;SDS011;72350;53.232;6.556;2023-08-31T04:55:54;2.63;;;1.02;;
82473;SDS011;72350;53.232;6.556;2023-08-31T04:58:21;1.88;;;0.82;;
82473;SDS011;72350;53.232;6.556;2023-08-31T05:00:49;2.40;;;1.20;;
82473;SDS011;72350;53.232;6.556;2023-08-31T05:03:20;5.70;;;1.40;;
82473;SDS011;72350;53.232;6.556;2023-08-31T05:05:48;2.30;;;1.17;;
82473;SDS011;72350;53.232;6.556;2023-08-31T05:08:16;3.60;;;1.00;;
82473;SDS011;72350;53.232;6.556;2023-08-31T05:10:44;1.40;;;0.60;;
82473;SDS011;72350;53.232;6.556;2023-08-31T05:13:12;3.15;;;0.95;;
82473;SDS011;72350;53.232;6.556;2023-08-31T05:15:40;1.88;;;0.80;;
82473;SDS011;72350;53.232;6.556;2023-08-31T05:18:08;2.55;;;1.13;;
82473;SDS011;72350;53.232;6.556;2023-08-31T05:20:37;3.58;;;1.88;;
82473;SDS011;72350;53.232;6.556;2023-08-31T05:23:05;3.05;;;1.52;;
82473;SDS011;72350;53.232;6.556;2023-08-31T05:25:32;6.22;;;2.47;;
82473;SDS011;72350;53.232;6.556;2023-08-31T05:28:00;2.33;;;1.80;;
82473;SDS011;72350;53.232;6.556;2023-08-31T05:30:29;6.72;;;3.22;;
82473;SDS011;72350;53.232;6.556;2023-08-31T05:32:57;5.90;;;3.33;;
82473;SDS011;72350;53.232;6.556;2023-08-31T05:35:25;18.42;;;9.95;;
82473;SDS011;72350;53.232;6.556;2023-08-31T05:37:54;9.43;;;4.95;;
82473;SDS011;72350;53.232;6.556;2023-08-31T05:40:22;4.85;;;3.70;;
82473;SDS011;72350;53.232;6.556;2023-08-31T05:42:50;19.63;;;11.02;;
82473;SDS011;72350;53.232;6.556;2023-08-31T05:45:18;8.38;;;3.42;;
82473;SDS011;72350;53.232;6.556;2023-08-31T05:47:45;1.85;;;1.00;;
82473;SDS011;72350;53.232;6.556;2023-08-31T05:50:13;7.10;;;3.65;;
82473;SDS011;72350;53.232;6.556;2023-08-31T05:52:41;7.13;;;3.97;;
82473;SDS011;72350;53.232;6.556;2023-08-31T05:55:30;6.80;;;3.20;;
82473;SDS011;72350;53.232;6.556;2023-08-31T05:57:59;5.50;;;1.60;;
82473;SDS011;72350;53.232;6.556;2023-08-31T06:00:27;21.95;;;13.68;;
82473;SDS011;72350;53.232;6.556;2023-08-31T06:02:55;8.77;;;5.05;;
82473;SDS011;72350;53.232;6.556;2023-08-31T06:05:22;4.75;;;2.10;;
82473;SDS011;72350;53.232;6.556;2023-08-31T06:07:50;14.05;;;6.28;;
82473;SDS011;72350;53.232;6.556;2023-08-31T06:10:19;6.82;;;3.55;;
82473;SDS011;72350;53.232;6.556;2023-08-31T06:12:48;15.48;;;8.77;;
82473;SDS011;72350;53.232;6.556;2023-08-31T06:15:16;19.13;;;13.38;;
82473;SDS011;72350;53.232;6.556;2023-08-31T06:17:45;8.15;;;4.72;;
82473;SDS011;72350;53.232;6.556;2023-08-31T06:20:13;29.65;;;15.45;;
82473;SDS011;72350;53.232;6.556;2023-08-31T06:22:40;6.28;;;3.67;;
82473;SDS011;72350;53.232;6.556;2023-08-31T06:25:09;20.58;;;10.95;;
82473;SDS011;72350;53.232;6.556;2023-08-31T06:27:37;28.00;;;17.08;;
82473;SDS011;72350;53.232;6.556;2023-08-31T06:30:07;34.95;;;21.73;;
82473;SDS011;72350;53.232;6.556;2023-08-31T06:32:38;38.72;;;21.98;;
82473;SDS011;72350;53.232;6.556;2023-08-31T06:35:06;29.58;;;18.98;;
82473;SDS011;72350;53.232;6.556;2023-08-31T06:37:34;40.55;;;25.65;;
82473;SDS011;72350;53.232;6.556;2023-08-31T06:40:02;64.63;;;38.85;;
82473;SDS011;72350;53.232;6.556;2023-08-31T06:42:30;39.78;;;24.38;;
82473;SDS011;72350;53.232;6.556;2023-08-31T06:44:57;34.90;;;22.35;;
82473;SDS011;72350;53.232;6.556;2023-08-31T06:47:26;33.60;;;21.98;;
82473;SDS011;72350;53.232;6.556;2023-08-31T06:49:54;33.20;;;20.10;;
82473;SDS011;72350;53.232;6.556;2023-08-31T06:52:24;22.00;;;13.60;;
82473;SDS011;72350;53.232;6.556;2023-08-31T06:54:57;35.15;;;22.50;;
82473;SDS011;72350;53.232;6.556;2023-08-31T06:57:25;17.90;;;11.82;;
82473;SDS011;72350;53.232;6.556;2023-08-31T06:59:54;24.40;;;14.43;;
82473;SDS011;72350;53.232;6.556;2023-08-31T07:02:22;25.13;;;14.13;;
82473;SDS011;72350;53.232;6.556;2023-08-31T07:04:52;16.45;;;9.88;;
82473;SDS011;72350;53.232;6.556;2023-08-31T07:07:20;31.58;;;19.25;;
82473;SDS011;72350;53.232;6.556;2023-08-31T07:09:48;34.63;;;21.67;;
82473;SDS011;72350;53.232;6.556;2023-08-31T07:12:16;20.23;;;13.18;;
82473;SDS011;72350;53.232;6.556;2023-08-31T07:14:44;51.03;;;32.33;;
82473;SDS011;72350;53.232;6.556;2023-08-31T07:17:12;20.83;;;13.63;;
82473;SDS011;72350;53.232;6.556;2023-08-31T07:19:39;31.50;;;20.90;;
82473;SDS011;72350;53.232;6.556;2023-08-31T07:22:09;21.17;;;12.25;;
82473;SDS011;72350;53.232;6.556;2023-08-31T07:24:36;25.13;;;15.60;;
82473;SDS011;72350;53.232;6.556;2023-08-31T07:27:04;11.40;;;5.70;;
82473;SDS011;72350;53.232;6.556;2023-08-31T07:29:32;27.77;;;18.27;;
82473;SDS011;72350;53.232;6.556;2023-08-31T07:32:00;16.92;;;9.13;;
82473;SDS011;72350;53.232;6.556;2023-08-31T07:34:29;29.58;;;18.90;;
82473;SDS011;72350;53.232;6.556;2023-08-31T07:36:58;9.88;;;6.55;;
82473;SDS011;72350;53.232;6.556;2023-08-31T07:39:28;8.85;;;5.78;;
82473;SDS011;72350;53.232;6.556;2023-08-31T07:41:56;27.85;;;16.98;;
82473;SDS011;72350;53.232;6.556;2023-08-31T07:44:25;22.35;;;12.60;;
82473;SDS011;72350;53.232;6.556;2023-08-31T07:46:53;17.42;;;10.35;;
82473;SDS011;72350;53.232;6.556;2023-08-31T07:49:21;9.95;;;4.18;;
82473;SDS011;72350;53.232;6.556;2023-08-31T07:51:49;24.70;;;13.75;;
82473;SDS011;72350;53.232;6.556;2023-08-31T07:54:20;10.10;;;6.50;;
82473;SDS011;72350;53.232;6.556;2023-08-31T07:56:49;12.20;;;7.32;;
82473;SDS011;72350;53.232;6.556;2023-08-31T07:59:17;6.70;;;3.55;;
82473;SDS011;72350;53.232;6.556;2023-08-31T08:01:45;5.22;;;3.13;;
82473;SDS011;72350;53.232;6.556;2023-08-31T08:04:13;3.63;;;2.30;;
82473;SDS011;72350;53.232;6.556;2023-08-31T08:06:41;8.68;;;5.78;;
82473;SDS011;72350;53.232;6.556;2023-08-31T08:09:09;6.22;;;3.08;;
82473;SDS011;72350;53.232;6.556;2023-08-31T08:11:38;10.63;;;4.90;;
82473;SDS011;72350;53.232;6.556;2023-08-31T08:14:07;6.43;;;4.05;;
82473;SDS011;72350;53.232;6.556;2023-08-31T08:16:35;23.55;;;16.02;;
82473;SDS011;72350;53.232;6.556;2023-08-31T08:19:03;11.95;;;6.60;;
82473;SDS011;72350;53.232;6.556;2023-08-31T08:21:33;26.83;;;16.80;;
82473;SDS011;72350;53.232;6.556;2023-08-31T08:24:00;9.40;;;4.88;;
82473;SDS011;72350;53.232;6.556;2023-08-31T08:26:29;24.90;;;15.25;;
82473;SDS011;72350;53.232;6.556;2023-08-31T08:28:57;5.95;;;3.10;;
82473;SDS011;72350;53.232;6.556;2023-08-31T08:31:26;5.40;;;2.72;;
82473;SDS011;72350;53.232;6.556;2023-08-31T08:33:54;10.73;;;7.35;;
82473;SDS011;72350;53.232;6.556;2023-08-31T08:36:22;5.32;;;4.38;;
82473;SDS011;72350;53.232;6.556;2023-08-31T08:38:49;7.40;;;5.47;;
82473;SDS011;72350;53.232;6.556;2023-08-31T08:41:17;6.15;;;3.40;;
82473;SDS011;72350;53.232;6.556;2023-08-31T08:46:18;4.97;;;4.03;;
82473;SDS011;72350;53.232;6.556;2023-08-31T08:48:47;7.97;;;4.45;;
82473;SDS011;72350;53.232;6.556;2023-08-31T08:51:16;6.88;;;4.00;;
82473;SDS011;72350;53.232;6.556;2023-08-31T08:53:44;6.15;;;3.20;;
82473;SDS011;72350;53.232;6.556;2023-08-31T08:56:13;6.60;;;2.83;;
82473;SDS011;72350;53.232;6.556;2023-08-31T08:58:41;4.63;;;2.78;;
82473;SDS011;72350;53.232;6.556;2023-08-31T09:01:09;8.18;;;4.90;;
82473;SDS011;72350;53.232;6.556;2023-08-31T09:03:37;3.70;;;2.08;;
82473;SDS011;72350;53.232;6.556;2023-08-31T09:06:07;6.03;;;4.03;;
82473;SDS011;72350;53.232;6.556;2023-08-31T09:08:37;6.55;;;4.55;;
82473;SDS011;72350;53.232;6.556;2023-08-31T09:11:04;9.48;;;4.00;;
82473;SDS011;72350;53.232;6.556;2023-08-31T09:13:32;3.03;;;1.50;;
82473;SDS011;72350;53.232;6.556;2023-08-31T09:16:00;5.13;;;2.55;;
82473;SDS011;72350;53.232;6.556;2023-08-31T09:18:28;6.00;;;2.08;;
82473;SDS011;72350;53.232;6.556;2023-08-31T09:20:59;6.82;;;3.50;;
82473;SDS011;72350;53.232;6.556;2023-08-31T09:23:30;3.25;;;1.58;;
82473;SDS011;72350;53.232;6.556;2023-08-31T09:25:58;4.32;;;2.35;;
82473;SDS011;72350;53.232;6.556;2023-08-31T09:28:26;3.65;;;2.10;;
82473;SDS011;72350;53.232;6.556;2023-08-31T09:31:03;4.15;;;1.92;;
82473;SDS011;72350;53.232;6.556;2023-08-31T09:33:34;3.40;;;1.30;;
82473;SDS011;72350;53.232;6.556;2023-08-31T09:36:02;5.00;;;1.30;;
82473;SDS011;72350;53.232;6.556;2023-08-31T09:38:33;9.50;;;3.97;;
82473;SDS011;72350;53.232;6.556;2023-08-31T09:41:08;3.72;;;1.48;;
82473;SDS011;72350;53.232;6.556;2023-08-31T09:43:36;4.78;;;2.08;;
82473;SDS011;72350;53.232;6.556;2023-08-31T09:46:04;4.88;;;2.10;;
82473;SDS011;72350;53.232;6.556;2023-08-31T09:48:33;2.70;;;1.38;;
82473;SDS011;72350;53.232;6.556;2023-08-31T09:51:04;4.97;;;3.17;;
82473;SDS011;72350;53.232;6.556;2023-08-31T09:53:33;3.20;;;1.35;;
82473;SDS011;72350;53.232;6.556;2023-08-31T09:56:04;2.83;;;1.10;;
82473;SDS011;72350;53.232;6.556;2023-08-31T09:58:33;2.58;;;1.63;;
82473;SDS011;72350;53.232;6.556;2023-08-31T10:01:01;1.38;;;1.27;;
82473;SDS011;72350;53.232;6.556;2023-08-31T10:03:41;2.92;;;1.42;;
82473;SDS011;72350;53.232;6.556;2023-08-31T10:06:10;2.38;;;1.30;;
82473;SDS011;72350;53.232;6.556;2023-08-31T10:08:40;1.52;;;1.05;;
82473;SDS011;72350;53.232;6.556;2023-08-31T10:11:10;2.88;;;1.42;;
82473;SDS011;72350;53.232;6.556;2023-08-31T10:13:40;11.38;;;3.03;;
82473;SDS011;72350;53.232;6.556;2023-08-31T10:16:10;2.22;;;0.88;;
82473;SDS011;72350;53.232;6.556;2023-08-31T10:18:38;5.03;;;1.70;;
82473;SDS011;72350;53.232;6.556;2023-08-31T10:21:06;3.17;;;2.22;;
82473;SDS011;72350;53.232;6.556;2023-08-31T10:23:35;1.90;;;0.90;;
82473;SDS011;72350;53.232;6.556;2023-08-31T10:26:06;9.93;;;2.30;;
82473;SDS011;72350;53.232;6.556;2023-08-31T10:28:41;5.22;;;1.75;;
82473;SDS011;72350;53.232;6.556;2023-08-31T10:31:10;3.15;;;1.50;;
82473;SDS011;72350;53.232;6.556;2023-08-31T10:33:43;3.13;;;1.98;;
82473;SDS011;72350;53.232;6.556;2023-08-31T10:36:12;2.65;;;2.13;;
82473;SDS011;72350;53.232;6.556;2023-08-31T10:38:41;3.20;;;1.70;;
82473;SDS011;72350;53.232;6.556;2023-08-31T10:41:22;4.90;;;2.13;;
82473;SDS011;72350;53.232;6.556;2023-08-31T10:43:52;2.50;;;1.75;;
82473;SDS011;72350;53.232;6.556;2023-08-31T10:46:24;6.10;;;2.83;;
82473;SDS011;72350;53.232;6.556;2023-08-31T10:48:55;6.40;;;2.88;;
82473;SDS011;72350;53.232;6.556;2023-08-31T10:51:25;5.50;;;3.08;;
82473;SDS011;72350;53.232;6.556;2023-08-31T10:54:06;5.40;;;3.58;;
82473;SDS011;72350;53.232;6.556;2023-08-31T10:56:54;2.83;;;2.08;;
82473;SDS011;72350;53.232;6.556;2023-08-31T10:59:43;4.37;;;2.63;;
82473;SDS011;72350;53.232;6.556;2023-08-31T11:04:59;2.95;;;2.17;;
82473;SDS011;72350;53.232;6.556;2023-08-31T11:07:30;4.25;;;2.45;;
82473;SDS011;72350;53.232;6.556;2023-08-31T11:12:48;4.45;;;2.22;;
82473;SDS011;72350;53.232;6.556;2023-08-31T11:15:17;2.72;;;1.40;;
82473;SDS011;72350;53.232;6.556;2023-08-31T11:17:45;4.70;;;1.50;;
82473;SDS011;72350;53.232;6.556;2023-08-31T11:20:14;1.90;;;0.88;;
82473;SDS011;72350;53.232;6.556;2023-08-31T11:22:44;4.03;;;1.60;;
82473;SDS011;72350;53.232;6.556;2023-08-31T11:25:16;3.00;;;1.48;;
82473;SDS011;72350;53.232;6.556;2023-08-31T11:27:54;7.20;;;2.40;;
82473;SDS011;72350;53.232;6.556;2023-08-31T11:30:22;6.95;;;1.60;;
82473;SDS011;72350;53.232;6.556;2023-08-31T11:32:51;4.40;;;1.65;;
82473;SDS011;72350;53.232;6.556;2023-08-31T11:35:20;3.08;;;1.40;;
82473;SDS011;72350;53.232;6.556;2023-08-31T11:37:49;4.18;;;1.52;;
82473;SDS011;72350;53.232;6.556;2023-08-31T11:40:18;5.80;;;1.88;;
82473;SDS011;72350;53.232;6.556;2023-08-31T11:42:47;2.67;;;1.23;;
82473;SDS011;72350;53.232;6.556;2023-08-31T11:45:17;3.00;;;1.73;;
82473;SDS011;72350;53.232;6.556;2023-08-31T11:47:46;1.60;;;1.33;;
82473;SDS011;72350;53.232;6.556;2023-08-31T11:50:16;0.95;;;0.90;;
82473;SDS011;72350;53.232;6.556;2023-08-31T11:52:45;4.50;;;2.08;;
82473;SDS011;72350;53.232;6.556;2023-08-31T11:55:15;5.93;;;2.45;;
82473;SDS011;72350;53.232;6.556;2023-08-31T11:57:48;8.55;;;1.88;;
82473;SDS011;72350;53.232;6.556;2023-08-31T12:00:18;5.55;;;1.50;;
82473;SDS011;72350;53.232;6.556;2023-08-31T12:02:54;2.42;;;1.15;;
82473;SDS011;72350;53.232;6.556;2023-08-31T12:05:23;4.68;;;1.20;;
82473;SDS011;72350;53.232;6.556;2023-08-31T12:07:52;6.65;;;2.50;;
82473;SDS011;72350;53.232;6.556;2023-08-31T12:10:23;6.25;;;3.50;;
82473;SDS011;72350;53.232;6.556;2023-08-31T12:12:51;6.90;;;2.97;;
82473;SDS011;72350;53.232;6.556;2023-08-31T12:15:23;6.38;;;2.75;;
82473;SDS011;72350;53.232;6.556;2023-08-31T12:17:57;4.80;;;1.73;;
82473;SDS011;72350;53.232;6.556;2023-08-31T12:20:26;4.35;;;1.55;;
82473;SDS011;72350;53.232;6.556;2023-08-31T12:22:54;4.47;;;2.00;;
82473;SDS011;72350;53.232;6.556;2023-08-31T12:25:22;5.35;;;1.63;;
82473;SDS011;72350;53.232;6.556;2023-08-31T12:27:50;4.05;;;1.58;;
82473;SDS011;72350;53.232;6.556;2023-08-31T12:30:18;4.18;;;1.85;;
82473;SDS011;72350;53.232;6.556;2023-08-31T12:32:47;5.13;;;1.85;;
82473;SDS011;72350;53.232;6.556;2023-08-31T12:35:15;4.20;;;2.17;;
82473;SDS011;72350;53.232;6.556;2023-08-31T12:37:43;3.13;;;1.73;;
82473;SDS011;72350;53.232;6.556;2023-08-31T12:40:11;5.55;;;1.73;;
82473;SDS011;72350;53.232;6.556;2023-08-31T12:42:38;10.88;;;2.35;;
82473;SDS011;72350;53.232;6.556;2023-08-31T12:45:07;5.82;;;1.50;;
82473;SDS011;72350;53.232;6.556;2023-08-31T12:47:35;3.42;;;1.85;;
82473;SDS011;72350;53.232;6.556;2023-08-31T12:50:05;5.22;;;1.75;;
82473;SDS011;72350;53.232;6.556;2023-08-31T12:52:34;4.55;;;1.40;;
82473;SDS011;72350;53.232;6.556;2023-08-31T12:55:02;4.35;;;1.85;;
82473;SDS011;72350;53.232;6.556;2023-08-31T12:57:30;2.55;;;1.55;;
82473;SDS011;72350;53.232;6.556;2023-08-31T12:59:58;3.97;;;1.35;;
82473;SDS011;72350;53.232;6.556;2023-08-31T13:02:26;3.38;;;1.92;;
82473;SDS011;72350;53.232;6.556;2023-08-31T13:04:54;3.60;;;1.20;;
82473;SDS011;72350;53.232;6.556;2023-08-31T13:07:23;2.78;;;1.92;;
82473;SDS011;72350;53.232;6.556;2023-08-31T13:09:51;3.22;;;1.30;;
82473;SDS011;72350;53.232;6.556;2023-08-31T13:12:19;3.60;;;1.10;;
82473;SDS011;72350;53.232;6.556;2023-08-31T13:14:47;2.60;;;1.42;;
82473;SDS011;72350;53.232;6.556;2023-08-31T13:17:15;2.63;;;1.60;;
82473;SDS011;72350;53.232;6.556;2023-08-31T13:19:42;4.97;;;1.33;;
82473;SDS011;72350;53.232;6.556;2023-08-31T13:22:10;5.72;;;1.63;;
82473;SDS011;72350;53.232;6.556;2023-08-31T13:24:43;2.35;;;1.33;;
82473;SDS011;72350;53.232;6.556;2023-08-31T13:27:10;2.63;;;1.35;;
82473;SDS011;72350;53.232;6.556;2023-08-31T13:29:39;4.65;;;1.30;;
82473;SDS011;72350;53.232;6.556;2023-08-31T13:32:07;2.15;;;1.05;;
82473;SDS011;72350;53.232;6.556;2023-08-31T13:34:36;2.45;;;1.17;;
82473;SDS011;72350;53.232;6.556;2023-08-31T13:37:04;3.20;;;1.25;;
82473;SDS011;72350;53.232;6.556;2023-08-31T13:39:34;4.22;;;1.60;;
82473;SDS011;72350;53.232;6.556;2023-08-31T13:42:05;2.63;;;1.40;;
82473;SDS011;72350;53.232;6.556;2023-08-31T13:44:33;5.32;;;1.70;;
82473;SDS011;72350;53.232;6.556;2023-08-31T13:47:02;3.00;;;1.27;;
82473;SDS011;72350;53.232;6.556;2023-08-31T13:49:31;4.78;;;2.00;;
82473;SDS011;72350;53.232;6.556;2023-08-31T13:51:59;4.82;;;1.75;;
82473;SDS011;72350;53.232;6.556;2023-08-31T13:54:27;4.22;;;1.77;;
82473;SDS011;72350;53.232;6.556;2023-08-31T13:56:55;3.88;;;1.33;;
82473;SDS011;72350;53.232;6.556;2023-08-31T13:59:24;7.40;;;2.05;;
82473;SDS011;72350;53.232;6.556;2023-08-31T14:01:54;5.05;;;1.75;;
82473;SDS011;72350;53.232;6.556;2023-08-31T14:04:21;6.82;;;1.40;;
82473;SDS011;72350;53.232;6.556;2023-08-31T14:06:49;5.30;;;1.52;;
82473;SDS011;72350;53.232;6.556;2023-08-31T14:09:17;3.70;;;2.13;;
82473;SDS011;72350;53.232;6.556;2023-08-31T14:11:45;7.80;;;4.38;;
82473;SDS011;72350;53.232;6.556;2023-08-31T14:14:13;6.18;;;3.80;;
82473;SDS011;72350;53.232;6.556;2023-08-31T14:16:43;7.68;;;4.20;;
82473;SDS011;72350;53.232;6.556;2023-08-31T14:19:11;7.15;;;4.38;;
82473;SDS011;72350;53.232;6.556;2023-08-31T14:21:39;3.13;;;1.65;;
82473;SDS011;72350;53.232;6.556;2023-08-31T14:24:07;4.80;;;2.20;;
82473;SDS011;72350;53.232;6.556;2023-08-31T14:26:35;3.22;;;2.05;;
82473;SDS011;72350;53.232;6.556;2023-08-31T14:29:03;3.65;;;1.98;;
82473;SDS011;72350;53.232;6.556;2023-08-31T14:31:31;5.05;;;1.70;;
82473;SDS011;72350;53.232;6.556;2023-08-31T14:34:00;2.60;;;1.23;;
82473;SDS011;72350;53.232;6.556;2023-08-31T14:36:28;3.38;;;2.03;;
82473;SDS011;72350;53.232;6.556;2023-08-31T14:38:56;1.63;;;1.20;;
82473;SDS011;72350;53.232;6.556;2023-08-31T14:41:24;3.30;;;1.35;;
82473;SDS011;72350;53.232;6.556;2023-08-31T14:43:52;2.75;;;1.40;;
82473;SDS011;72350;53.232;6.556;2023-08-31T14:46:19;4.53;;;1.58;;
82473;SDS011;72350;53.232;6.556;2023-08-31T14:48:48;6.03;;;1.52;;
82473;SDS011;72350;53.232;6.556;2023-08-31T14:51:17;4.82;;;1.60;;
82473;SDS011;72350;53.232;6.556;2023-08-31T14:53:45;2.15;;;1.25;;
82473;SDS011;72350;53.232;6.556;2023-08-31T14:56:13;6.45;;;3.45;;
82473;SDS011;72350;53.232;6.556;2023-08-31T14:58:40;4.75;;;2.50;;
82473;SDS011;72350;53.232;6.556;2023-08-31T15:01:08;4.35;;;1.90;;
82473;SDS011;72350;53.232;6.556;2023-08-31T15:03:36;10.48;;;4.22;;
82473;SDS011;72350;53.232;6.556;2023-08-31T15:06:04;7.15;;;3.78;;